sensor_id;sensor_type;location;lat;lon;timestamp;P1;durP1;ratioP1;P2;durP2;ratioP2
12451;SDS011;6291;48.924;12.204;2022-07-26T00:21:43;7.10;;;6.13;;
12451;SDS011;6291;48.924;12.204;2022-07-26T00:26:46;7.77;;;6.67;;
12451;SDS011;6291;48.924;12.204;2022-07-26T00:31:51;10.67;;;9.53;;
12451;SDS011;6291;48.924;12.204;2022-07-26T00:36:55;10.85;;;8.60;;
12451;SDS011;6291;48.924;12.204;2022-07-26T00:41:58;9.73;;;8.17;;
12451;SDS011;6291;48.924;12.204;2022-07-26T00:47:03;7.83;;;7.00;;
12451;SDS011;6291;48.924;12.204;2022-07-26T00:52:06;8.85;;;7.95;;
12451;SDS011;6291;48.924;12.204;2022-07-26T00:57:11;8.23;;;6.78;;
12451;SDS011;6291;48.924;12.204;2022-07-26T01:02:17;8.47;;;6.53;;
12451;SDS011;6291;48.924;12.204;2022-07-26T01:07:20;6.15;;;4.15;;
12451;SDS011;6291;48.924;12.204;2022-07-26T01:12:24;6.67;;;5.50;;
12451;SDS011;6291;48.924;12.204;2022-07-26T01:17:28;7.35;;;5.10;;
12451;SDS011;6291;48.924;12.204;2022-07-26T01:22:38;7.00;;;5.88;;
12451;SDS011;6291;48.924;12.204;2022-07-26T01:27:41;6.38;;;5.55;;
12451;SDS011;6291;48.924;12.204;2022-07-26T01:32:45;6.70;;;5.80;;
12451;SDS011;6291;48.924;12.204;2022-07-26T01:37:50;7.60;;;5.20;;
12451;SDS011;6291;48.924;12.204;2022-07-26T01:42:53;5.80;;;5.20;;
12451;SDS011;6291;48.924;12.204;2022-07-26T01:47:57;6.55;;;5.60;;
12451;SDS011;6291;48.924;12.204;2022-07-26T01:53:03;6.63;;;5.32;;
12451;SDS011;6291;48.924;12.204;2022-07-26T01:58:07;5.22;;;4.70;;
12451;SDS011;6291;48.924;12.204;2022-07-26T02:03:10;5.00;;;4.50;;
12451;SDS011;6291;48.924;12.204;2022-07-26T02:08:15;6.20;;;4.70;;
12451;SDS011;6291;48.924;12.204;2022-07-26T02:13:21;5.17;;;4.40;;
12451;SDS011;6291;48.924;12.204;2022-07-26T02:18:24;5.03;;;4.53;;
12451;SDS011;6291;48.924;12.204;2022-07-26T02:23:30;5.00;;;4.20;;
12451;SDS011;6291;48.924;12.204;2022-07-26T02:28:33;5.20;;;3.77;;
12451;SDS011;6291;48.924;12.204;2022-07-26T02:33:36;4.63;;;3.80;;
12451;SDS011;6291;48.924;12.204;2022-07-26T02:38:41;4.45;;;3.97;;
12451;SDS011;6291;48.924;12.204;2022-07-26T02:43:44;4.63;;;3.67;;
12451;SDS011;6291;48.924;12.204;2022-07-26T02:48:47;5.72;;;4.43;;
12451;SDS011;6291;48.924;12.204;2022-07-26T02:53:52;5.15;;;4.03;;
12451;SDS011;6291;48.924;12.204;2022-07-26T05:16:05;6.43;;;4.40;;
12451;SDS011;6291;48.924;12.204;2022-07-26T05:21:12;5.60;;;4.53;;
12451;SDS011;6291;48.924;12.204;2022-07-26T05:26:17;5.07;;;4.65;;
12451;SDS011;6291;48.924;12.204;2022-07-26T05:31:20;6.85;;;4.85;;
12451;SDS011;6291;48.924;12.204;2022-07-26T05:36:24;6.03;;;4.93;;
12451;SDS011;6291;48.924;12.204;2022-07-26T05:41:28;6.57;;;5.10;;
12451;SDS011;6291;48.924;12.204;2022-07-26T05:46:32;5.57;;;5.07;;
12451;SDS011;6291;48.924;12.204;2022-07-26T05:51:35;6.45;;;5.47;;
12451;SDS011;6291;48.924;12.204;2022-07-26T05:56:40;6.45;;;4.93;;
12451;SDS011;6291;48.924;12.204;2022-07-26T06:01:43;6.63;;;5.07;;
12451;SDS011;6291;48.924;12.204;2022-07-26T06:06:47;7.15;;;4.88;;
12451;SDS011;6291;48.924;12.204;2022-07-26T06:11:51;5.53;;;4.73;;
12451;SDS011;6291;48.924;12.204;2022-07-26T06:16:55;6.82;;;4.45;;
12451;SDS011;6291;48.924;12.204;2022-07-26T06:21:58;6.47;;;4.77;;
12451;SDS011;6291;48.924;12.204;2022-07-26T06:27:03;5.20;;;4.57;;
12451;SDS011;6291;48.924;12.204;2022-07-26T06:32:07;5.70;;;4.43;;
12451;SDS011;6291;48.924;12.204;2022-07-26T06:37:10;5.30;;;4.60;;
12451;SDS011;6291;48.924;12.204;2022-07-26T06:42:15;5.75;;;4.40;;
12451;SDS011;6291;48.924;12.204;2022-07-26T06:47:19;6.07;;;4.82;;
12451;SDS011;6291;48.924;12.204;2022-07-26T06:52:22;5.15;;;4.28;;
12451;SDS011;6291;48.924;12.204;2022-07-26T06:57:27;6.47;;;4.23;;
12451;SDS011;6291;48.924;12.204;2022-07-26T07:02:31;5.05;;;4.55;;
12451;SDS011;6291;48.924;12.204;2022-07-26T07:07:34;4.80;;;4.30;;
12451;SDS011;6291;48.924;12.204;2022-07-26T07:12:40;5.03;;;3.88;;
12451;SDS011;6291;48.924;12.204;2022-07-26T07:17:45;5.25;;;3.70;;
12451;SDS011;6291;48.924;12.204;2022-07-26T07:22:48;5.20;;;3.47;;
12451;SDS011;6291;48.924;12.204;2022-07-26T07:27:53;4.40;;;3.53;;
12451;SDS011;6291;48.924;12.204;2022-07-26T07:32:56;4.13;;;3.10;;
12451;SDS011;6291;48.924;12.204;2022-07-26T07:38:00;4.25;;;3.17;;
12451;SDS011;6291;48.924;12.204;2022-07-26T07:43:04;5.65;;;3.65;;
12451;SDS011;6291;48.924;12.204;2022-07-26T07:48:08;4.00;;;2.53;;
12451;SDS011;6291;48.924;12.204;2022-07-26T07:53:11;3.60;;;2.05;;
12451;SDS011;6291;48.924;12.204;2022-07-26T07:58:18;3.38;;;2.05;;
12451;SDS011;6291;48.924;12.204;2022-07-26T08:03:21;4.45;;;2.40;;
12451;SDS011;6291;48.924;12.204;2022-07-26T08:08:39;3.60;;;2.87;;
12451;SDS011;6291;48.924;12.204;2022-07-26T08:13:44;2.60;;;1.97;;
12451;SDS011;6291;48.924;12.204;2022-07-26T08:18:48;4.20;;;2.40;;
12451;SDS011;6291;48.924;12.204;2022-07-26T08:23:58;4.07;;;2.63;;
12451;SDS011;6291;48.924;12.204;2022-07-26T08:29:03;5.75;;;2.53;;
12451;SDS011;6291;48.924;12.204;2022-07-26T08:34:06;3.92;;;2.20;;
12451;SDS011;6291;48.924;12.204;2022-07-26T08:39:09;3.55;;;1.90;;
12451;SDS011;6291;48.924;12.204;2022-07-26T08:49:17;4.90;;;2.55;;
12451;SDS011;6291;48.924;12.204;2022-07-26T08:54:21;2.83;;;2.07;;
12451;SDS011;6291;48.924;12.204;2022-07-26T08:59:25;2.83;;;1.70;;
12451;SDS011;6291;48.924;12.204;2022-07-26T09:04:32;3.97;;;1.80;;
12451;SDS011;6291;48.924;12.204;2022-07-26T09:09:57;3.17;;;1.50;;
12451;SDS011;6291;48.924;12.204;2022-07-26T09:15:03;2.60;;;1.60;;
12451;SDS011;6291;48.924;12.204;2022-07-26T09:20:09;2.55;;;1.42;;
12451;SDS011;6291;48.924;12.204;2022-07-26T09:25:18;2.67;;;1.55;;
12451;SDS011;6291;48.924;12.204;2022-07-26T09:30:24;3.33;;;1.90;;
12451;SDS011;6291;48.924;12.204;2022-07-26T09:35:29;2.50;;;1.80;;
12451;SDS011;6291;48.924;12.204;2022-07-26T09:40:51;2.30;;;1.80;;
12451;SDS011;6291;48.924;12.204;2022-07-26T09:46:04;4.23;;;1.97;;
12451;SDS011;6291;48.924;12.204;2022-07-26T09:51:08;2.50;;;1.80;;
12451;SDS011;6291;48.924;12.204;2022-07-26T09:56:12;3.03;;;1.65;;
12451;SDS011;6291;48.924;12.204;2022-07-26T10:01:17;2.33;;;1.55;;
12451;SDS011;6291;48.924;12.204;2022-07-26T10:06:20;2.53;;;1.57;;
12451;SDS011;6291;48.924;12.204;2022-07-26T10:11:46;5.47;;;1.70;;
12451;SDS011;6291;48.924;12.204;2022-07-26T10:22:46;4.55;;;1.60;;
12451;SDS011;6291;48.924;12.204;2022-07-26T10:27:52;1.80;;;1.50;;
12451;SDS011;6291;48.924;12.204;2022-07-26T10:32:58;2.65;;;1.30;;
12451;SDS011;6291;48.924;12.204;2022-07-26T10:38:03;3.60;;;1.60;;
12451;SDS011;6291;48.924;12.204;2022-07-26T10:43:08;2.10;;;1.03;;
12451;SDS011;6291;48.924;12.204;2022-07-26T10:48:34;1.48;;;1.20;;
12451;SDS011;6291;48.924;12.204;2022-07-26T10:53:59;3.67;;;1.40;;
12451;SDS011;6291;48.924;12.204;2022-07-26T10:59:03;1.77;;;1.30;;
12451;SDS011;6291;48.924;12.204;2022-07-26T11:04:17;2.30;;;1.20;;
12451;SDS011;6291;48.924;12.204;2022-07-26T11:09:21;1.20;;;0.95;;
12451;SDS011;6291;48.924;12.204;2022-07-26T11:14:24;2.97;;;1.20;;
12451;SDS011;6291;48.924;12.204;2022-07-26T11:19:29;1.80;;;1.20;;
12451;SDS011;6291;48.924;12.204;2022-07-26T11:24:32;1.80;;;1.20;;
12451;SDS011;6291;48.924;12.204;2022-07-26T11:29:41;1.70;;;1.20;;
12451;SDS011;6291;48.924;12.204;2022-07-26T11:34:57;2.13;;;1.30;;
12451;SDS011;6291;48.924;12.204;2022-07-26T11:40:01;5.05;;;1.30;;
12451;SDS011;6291;48.924;12.204;2022-07-26T11:45:06;1.85;;;1.15;;
12451;SDS011;6291;48.924;12.204;2022-07-26T11:50:13;3.08;;;1.27;;
12451;SDS011;6291;48.924;12.204;2022-07-26T11:55:27;2.30;;;1.20;;
12451;SDS011;6291;48.924;12.204;2022-07-26T12:00:31;1.50;;;1.25;;
12451;SDS011;6291;48.924;12.204;2022-07-26T12:05:36;1.80;;;1.20;;
12451;SDS011;6291;48.924;12.204;2022-07-26T12:10:40;1.67;;;0.93;;
12451;SDS011;6291;48.924;12.204;2022-07-26T12:15:44;1.50;;;1.02;;
12451;SDS011;6291;48.924;12.204;2022-07-26T12:26:21;2.30;;;1.20;;
12451;SDS011;6291;48.924;12.204;2022-07-26T12:31:25;2.10;;;1.30;;
12451;SDS011;6291;48.924;12.204;2022-07-26T12:36:32;2.55;;;1.50;;
12451;SDS011;6291;48.924;12.204;2022-07-26T12:41:36;1.20;;;1.07;;
12451;SDS011;6291;48.924;12.204;2022-07-26T12:46:40;2.08;;;1.10;;
12451;SDS011;6291;48.924;12.204;2022-07-26T12:51:46;3.28;;;1.20;;
12451;SDS011;6291;48.924;12.204;2022-07-26T12:56:50;2.10;;;1.00;;
12451;SDS011;6291;48.924;12.204;2022-07-26T13:01:54;1.33;;;1.07;;
12451;SDS011;6291;48.924;12.204;2022-07-26T13:06:58;1.63;;;1.10;;
12451;SDS011;6291;48.924;12.204;2022-07-26T13:12:02;2.50;;;1.23;;
12451;SDS011;6291;48.924;12.204;2022-07-26T13:17:07;1.90;;;1.20;;
12451;SDS011;6291;48.924;12.204;2022-07-26T13:22:13;1.57;;;1.30;;
12451;SDS011;6291;48.924;12.204;2022-07-26T13:27:16;1.35;;;1.23;;
12451;SDS011;6291;48.924;12.204;2022-07-26T13:32:19;1.47;;;1.30;;
12451;SDS011;6291;48.924;12.204;2022-07-26T13:37:24;1.33;;;1.00;;
12451;SDS011;6291;48.924;12.204;2022-07-26T13:42:27;2.90;;;1.10;;
12451;SDS011;6291;48.924;12.204;2022-07-26T13:47:30;2.00;;;0.97;;
12451;SDS011;6291;48.924;12.204;2022-07-26T13:52:35;3.13;;;1.10;;
12451;SDS011;6291;48.924;12.204;2022-07-26T13:57:38;1.20;;;0.85;;
12451;SDS011;6291;48.924;12.204;2022-07-26T14:02:57;2.83;;;0.93;;
12451;SDS011;6291;48.924;12.204;2022-07-26T14:08:03;1.47;;;0.80;;
12451;SDS011;6291;48.924;12.204;2022-07-26T14:13:07;1.70;;;0.80;;
12451;SDS011;6291;48.924;12.204;2022-07-26T14:18:11;1.13;;;0.80;;
12451;SDS011;6291;48.924;12.204;2022-07-26T14:23:15;3.83;;;0.97;;
12451;SDS011;6291;48.924;12.204;2022-07-26T14:28:19;1.55;;;0.60;;
12451;SDS011;6291;48.924;12.204;2022-07-26T14:33:22;1.70;;;0.70;;
12451;SDS011;6291;48.924;12.204;2022-07-26T14:38:27;2.42;;;0.70;;
12451;SDS011;6291;48.924;12.204;2022-07-26T14:43:30;1.33;;;0.73;;
12451;SDS011;6291;48.924;12.204;2022-07-26T14:48:34;3.45;;;0.90;;
12451;SDS011;6291;48.924;12.204;2022-07-26T14:53:56;2.33;;;0.95;;
12451;SDS011;6291;48.924;12.204;2022-07-26T14:58:59;2.43;;;0.70;;
12451;SDS011;6291;48.924;12.204;2022-07-26T15:04:02;1.50;;;0.70;;
12451;SDS011;6291;48.924;12.204;2022-07-26T15:09:08;2.30;;;0.60;;
12451;SDS011;6291;48.924;12.204;2022-07-26T15:14:11;2.35;;;0.88;;
12451;SDS011;6291;48.924;12.204;2022-07-26T15:19:15;2.53;;;0.80;;
12451;SDS011;6291;48.924;12.204;2022-07-26T15:24:27;1.88;;;0.70;;
12451;SDS011;6291;48.924;12.204;2022-07-26T15:29:31;1.60;;;0.60;;
12451;SDS011;6291;48.924;12.204;2022-07-26T15:34:36;2.97;;;0.70;;
12451;SDS011;6291;48.924;12.204;2022-07-26T15:39:41;3.50;;;2.10;;
12451;SDS011;6291;48.924;12.204;2022-07-26T15:44:44;4.25;;;0.85;;
12451;SDS011;6291;48.924;12.204;2022-07-26T15:49:47;3.30;;;0.65;;
12451;SDS011;6291;48.924;12.204;2022-07-26T15:54:52;1.45;;;0.63;;
12451;SDS011;6291;48.924;12.204;2022-07-26T15:59:55;2.30;;;0.80;;
12451;SDS011;6291;48.924;12.204;2022-07-26T16:05:11;1.88;;;0.70;;
12451;SDS011;6291;48.924;12.204;2022-07-26T16:10:16;2.70;;;0.70;;
12451;SDS011;6291;48.924;12.204;2022-07-26T16:15:20;1.30;;;1.02;;
12451;SDS011;6291;48.924;12.204;2022-07-26T16:20:23;1.77;;;0.77;;
12451;SDS011;6291;48.924;12.204;2022-07-26T16:25:28;2.22;;;0.65;;
12451;SDS011;6291;48.924;12.204;2022-07-26T16:30:31;2.67;;;0.85;;
12451;SDS011;6291;48.924;12.204;2022-07-26T16:35:37;1.33;;;0.60;;
12451;SDS011;6291;48.924;12.204;2022-07-26T16:40:42;2.22;;;0.50;;
12451;SDS011;6291;48.924;12.204;2022-07-26T16:45:45;3.10;;;0.80;;
12451;SDS011;6291;48.924;12.204;2022-07-26T16:50:48;2.45;;;0.65;;
12451;SDS011;6291;48.924;12.204;2022-07-26T16:55:53;2.13;;;0.57;;
12451;SDS011;6291;48.924;12.204;2022-07-26T17:00:56;1.05;;;0.60;;
12451;SDS011;6291;48.924;12.204;2022-07-26T17:06:00;1.40;;;0.60;;
12451;SDS011;6291;48.924;12.204;2022-07-26T17:11:08;0.75;;;0.43;;
12451;SDS011;6291;48.924;12.204;2022-07-26T17:16:12;0.90;;;0.50;;
12451;SDS011;6291;48.924;12.204;2022-07-26T17:21:22;1.40;;;0.60;;
12451;SDS011;6291;48.924;12.204;2022-07-26T17:26:26;2.05;;;0.80;;
12451;SDS011;6291;48.924;12.204;2022-07-26T17:31:30;2.15;;;0.45;;
12451;SDS011;6291;48.924;12.204;2022-07-26T17:36:34;1.83;;;0.53;;
12451;SDS011;6291;48.924;12.204;2022-07-26T17:41:39;2.40;;;0.57;;
12451;SDS011;6291;48.924;12.204;2022-07-26T17:46:47;1.90;;;0.70;;
12451;SDS011;6291;48.924;12.204;2022-07-26T17:51:52;1.27;;;0.60;;
12451;SDS011;6291;48.924;12.204;2022-07-26T17:56:59;1.15;;;0.52;;
12451;SDS011;6291;48.924;12.204;2022-07-26T18:02:02;1.65;;;0.50;;
12451;SDS011;6291;48.924;12.204;2022-07-26T18:07:05;1.83;;;0.70;;
12451;SDS011;6291;48.924;12.204;2022-07-26T18:12:11;1.35;;;0.52;;
12451;SDS011;6291;48.924;12.204;2022-07-26T18:17:14;3.00;;;0.60;;
12451;SDS011;6291;48.924;12.204;2022-07-26T18:22:17;2.33;;;0.77;;
12451;SDS011;6291;48.924;12.204;2022-07-26T18:27:22;1.00;;;0.90;;
12451;SDS011;6291;48.924;12.204;2022-07-26T18:32:28;2.50;;;1.40;;
12451;SDS011;6291;48.924;12.204;2022-07-26T18:37:32;2.30;;;1.10;;
12451;SDS011;6291;48.924;12.204;2022-07-26T18:42:36;1.48;;;0.80;;
12451;SDS011;6291;48.924;12.204;2022-07-26T18:47:40;1.63;;;0.90;;
12451;SDS011;6291;48.924;12.204;2022-07-26T18:52:44;1.27;;;0.70;;
12451;SDS011;6291;48.924;12.204;2022-07-26T18:57:49;2.63;;;0.70;;
12451;SDS011;6291;48.924;12.204;2022-07-26T19:02:53;1.38;;;0.90;;
12451;SDS011;6291;48.924;12.204;2022-07-26T19:07:57;1.00;;;0.60;;
12451;SDS011;6291;48.924;12.204;2022-07-26T19:13:02;1.55;;;0.60;;
12451;SDS011;6291;48.924;12.204;2022-07-26T19:18:09;1.45;;;0.68;;
12451;SDS011;6291;48.924;12.204;2022-07-26T19:23:14;2.00;;;0.70;;
12451;SDS011;6291;48.924;12.204;2022-07-26T19:28:18;0.85;;;0.60;;
12451;SDS011;6291;48.924;12.204;2022-07-26T19:33:22;0.90;;;0.50;;
12451;SDS011;6291;48.924;12.204;2022-07-26T19:38:25;1.70;;;0.63;;
12451;SDS011;6291;48.924;12.204;2022-07-26T19:43:30;2.15;;;0.70;;
12451;SDS011;6291;48.924;12.204;2022-07-26T19:48:34;1.50;;;0.80;;
12451;SDS011;6291;48.924;12.204;2022-07-26T19:53:37;1.60;;;0.73;;
12451;SDS011;6291;48.924;12.204;2022-07-26T19:58:42;1.75;;;0.88;;
12451;SDS011;6291;48.924;12.204;2022-07-26T20:03:46;2.25;;;0.95;;
12451;SDS011;6291;48.924;12.204;2022-07-26T20:08:50;1.45;;;0.70;;
12451;SDS011;6291;48.924;12.204;2022-07-26T20:13:54;2.70;;;0.90;;
12451;SDS011;6291;48.924;12.204;2022-07-26T20:18:58;2.15;;;0.80;;
12451;SDS011;6291;48.924;12.204;2022-07-26T20:24:02;1.40;;;0.70;;
12451;SDS011;6291;48.924;12.204;2022-07-26T20:29:06;1.60;;;0.70;;
12451;SDS011;6291;48.924;12.204;2022-07-26T20:34:12;1.97;;;0.80;;
12451;SDS011;6291;48.924;12.204;2022-07-26T20:39:15;1.40;;;0.70;;
12451;SDS011;6291;48.924;12.204;2022-07-26T20:44:20;2.42;;;0.70;;
12451;SDS011;6291;48.924;12.204;2022-07-26T20:49:28;1.20;;;0.70;;
12451;SDS011;6291;48.924;12.204;2022-07-26T20:54:32;1.50;;;0.70;;
12451;SDS011;6291;48.924;12.204;2022-07-26T20:59:36;0.70;;;0.60;;
12451;SDS011;6291;48.924;12.204;2022-07-26T21:04:40;1.65;;;0.70;;
12451;SDS011;6291;48.924;12.204;2022-07-26T21:09:43;4.97;;;2.75;;
12451;SDS011;6291;48.924;12.204;2022-07-26T21:14:48;1.37;;;0.70;;
12451;SDS011;6291;48.924;12.204;2022-07-26T21:19:51;2.88;;;0.73;;
12451;SDS011;6291;48.924;12.204;2022-07-26T21:24:55;1.90;;;0.90;;
12451;SDS011;6291;48.924;12.204;2022-07-26T21:30:00;1.42;;;0.70;;
12451;SDS011;6291;48.924;12.204;2022-07-26T21:35:03;1.08;;;0.80;;
12451;SDS011;6291;48.924;12.204;2022-07-26T21:40:07;2.77;;;0.83;;
12451;SDS011;6291;48.924;12.204;2022-07-26T21:45:13;1.35;;;0.80;;
12451;SDS011;6291;48.924;12.204;2022-07-26T21:50:16;2.20;;;0.80;;
12451;SDS011;6291;48.924;12.204;2022-07-26T21:55:20;1.40;;;0.90;;
12451;SDS011;6291;48.924;12.204;2022-07-26T22:00:25;2.30;;;0.90;;
12451;SDS011;6291;48.924;12.204;2022-07-26T22:05:28;1.85;;;1.00;;
12451;SDS011;6291;48.924;12.204;2022-07-26T22:10:40;2.10;;;0.90;;
12451;SDS011;6291;48.924;12.204;2022-07-26T22:15:46;1.88;;;0.73;;
12451;SDS011;6291;48.924;12.204;2022-07-26T22:20:50;1.40;;;0.90;;
12451;SDS011;6291;48.924;12.204;2022-07-26T22:25:54;1.43;;;0.80;;
12451;SDS011;6291;48.924;12.204;2022-07-26T22:30:59;2.00;;;0.90;;
12451;SDS011;6291;48.924;12.204;2022-07-26T22:36:03;1.97;;;0.90;;
12451;SDS011;6291;48.924;12.204;2022-07-26T22:41:06;1.90;;;1.00;;
12451;SDS011;6291;48.924;12.204;2022-07-26T22:46:11;1.08;;;0.70;;
12451;SDS011;6291;48.924;12.204;2022-07-26T22:51:15;1.27;;;0.80;;
12451;SDS011;6291;48.924;12.204;2022-07-26T22:56:18;2.78;;;1.00;;
12451;SDS011;6291;48.924;12.204;2022-07-26T23:01:22;1.73;;;0.93;;
12451;SDS011;6291;48.924;12.204;2022-07-26T23:06:26;1.90;;;1.13;;
12451;SDS011;6291;48.924;12.204;2022-07-26T23:11:32;3.28;;;1.20;;
12451;SDS011;6291;48.924;12.204;2022-07-26T23:16:37;1.37;;;0.90;;
12451;SDS011;6291;48.924;12.204;2022-07-26T23:21:41;2.00;;;1.00;;
12451;SDS011;6291;48.924;12.204;2022-07-26T23:26:44;2.47;;;1.02;;
12451;SDS011;6291;48.924;12.204;2022-07-26T23:31:49;1.00;;;0.90;;
12451;SDS011;6291;48.924;12.204;2022-07-26T23:36:52;1.90;;;0.80;;
12451;SDS011;6291;48.924;12.204;2022-07-26T23:41:55;2.92;;;1.00;;
12451;SDS011;6291;48.924;12.204;2022-07-26T23:47:01;1.57;;;1.10;;
12451;SDS011;6291;48.924;12.204;2022-07-26T23:52:04;2.10;;;1.30;;
12451;SDS011;6291;48.924;12.204;2022-07-26T23:57:07;1.50;;;1.17;;
